Time;durP1;ratioP1;P1;durP2;ratioP2;P2;SDS_P1;SDS_P2;PMS_P1;PMS_P2;Temp;Humidity;BMP_temperature;BMP_pressure;BME280_temperature;BME280_humidity;BME280_pressure;Samples;Min_cycle;Max_cycle;Signal;HPM_P1;HPM_P2
2023/05/31 00:00:32;;;;;;;4.23;2.00;;;;;;;19.69;nan;99555.25;5032754;28;20209;-80
2023/05/31 00:02:57;;;;;;;2.50;1.60;;;;;;;19.69;nan;99555.25;5033769;28;20733;-79
2023/05/31 00:05:24;;;;;;;1.93;1.70;;;;;;;19.68;nan;99549.03;5037778;28;20340;-80
2023/05/31 00:07:49;;;;;;;2.93;1.80;;;;;;;19.67;nan;99556.22;5042214;28;20512;-80
2023/05/31 00:10:15;;;;;;;5.23;1.90;;;;;;;19.63;nan;99545.97;5035502;28;20229;-81
2023/05/31 00:12:40;;;;;;;3.87;2.40;;;;;;;19.63;nan;99559.31;5032705;28;20225;-79
2023/05/31 00:15:06;;;;;;;2.77;2.20;;;;;;;19.61;nan;99561.31;5031532;28;20255;-80
2023/05/31 00:17:32;;;;;;;4.50;2.17;;;;;;;19.57;nan;99555.44;5031038;28;20970;-79
2023/05/31 00:19:57;;;;;;;3.70;2.20;;;;;;;19.54;nan;99558.41;5032424;28;21071;-79
2023/05/31 00:22:22;;;;;;;2.50;2.03;;;;;;;19.50;nan;99553.59;5030911;28;20227;-78
2023/05/31 00:24:48;;;;;;;3.23;2.30;;;;;;;19.42;nan;99554.38;5030374;28;21347;-79
2023/05/31 00:27:13;;;;;;;3.57;1.80;;;;;;;19.32;nan;99561.59;5031811;28;20247;-79
2023/05/31 00:29:39;;;;;;;2.90;2.70;;;;;;;19.20;nan;99555.69;5016024;28;20228;-79
2023/05/31 00:32:04;;;;;;;4.30;2.20;;;;;;;19.04;nan;99561.72;5032839;28;20217;-81
2023/05/31 00:34:30;;;;;;;4.13;2.13;;;;;;;18.89;nan;99560.56;5033232;28;20236;-81
2023/05/31 00:36:55;;;;;;;2.40;2.10;;;;;;;18.76;nan;99560.94;5032812;28;20209;-80
2023/05/31 00:39:21;;;;;;;4.27;2.00;;;;;;;18.66;nan;99563.66;5031770;28;20221;-79
2023/05/31 00:41:46;;;;;;;6.23;2.20;;;;;;;18.60;nan;99561.56;5029934;28;20456;-79
2023/05/31 00:44:11;;;;;;;2.00;1.80;;;;;;;18.53;nan;99561.34;5031429;28;20256;-81
2023/05/31 00:46:38;;;;;;;3.90;2.23;;;;;;;18.48;nan;99565.44;5016060;28;20217;-79
2023/05/31 00:49:04;;;;;;;2.50;1.90;;;;;;;18.38;nan;99573.47;5031554;28;20222;-78
2023/05/31 00:51:31;;;;;;;8.77;2.63;;;;;;;18.31;nan;99569.75;5017654;28;20475;-80
2023/05/31 00:53:59;;;;;;;2.73;2.53;;;;;;;18.24;nan;99561.50;5032889;28;20478;-82
2023/05/31 00:56:24;;;;;;;1.80;1.70;;;;;;;18.14;nan;99563.38;5030934;28;20498;-80
2023/05/31 00:58:53;;;;;;;9.40;3.17;;;;;;;18.11;nan;99569.00;5031562;28;20471;-80
2023/05/31 01:01:21;;;;;;;3.37;1.50;;;;;;;18.08;nan;99563.97;5031055;28;20205;-79
2023/05/31 01:03:47;;;;;;;4.70;1.90;;;;;;;18.04;nan;99570.59;5031708;28;20915;-79
2023/05/31 01:06:12;;;;;;;3.00;2.50;;;;;;;17.99;nan;99564.88;5029608;28;20468;-81
2023/05/31 01:08:38;;;;;;;2.13;1.80;;;;;;;17.94;nan;99569.78;5031021;28;20493;-80
2023/05/31 01:11:21;;;;;;;5.63;2.07;;;;;;;17.90;nan;99577.19;5030789;28;20217;-81
2023/05/31 01:14:01;;;;;;;4.60;1.93;;;;;;;17.89;nan;99572.84;5030227;28;20497;-81
2023/05/31 01:16:38;;;;;;;4.10;2.10;;;;;;;17.87;nan;99565.03;5029674;28;20474;-80
2023/05/31 01:19:07;;;;;;;5.33;2.47;;;;;;;17.89;nan;99564.88;5031116;28;20475;-79
2023/05/31 01:21:57;;;;;;;2.03;1.70;;;;;;;17.84;nan;99567.97;5014224;28;20460;-81
2023/05/31 01:24:36;;;;;;;3.00;1.87;;;;;;;17.79;nan;99562.25;5030784;28;20567;-79
2023/05/31 01:50:44;;;;;;;3.23;1.83;;;;;;;17.35;nan;99577.84;5019535;28;20465;-79
2023/05/31 01:53:10;;;;;;;3.70;1.90;;;;;;;17.34;nan;99570.88;5018002;28;20994;-82
2023/05/31 01:55:35;;;;;;;2.43;1.97;;;;;;;17.32;nan;99566.69;5000178;28;20475;-81
2023/05/31 01:58:01;;;;;;;6.17;3.30;;;;;;;17.28;nan;99571.41;5000840;28;20482;-81
2023/05/31 02:00:28;;;;;;;4.37;2.30;;;;;;;17.23;nan;99579.00;5000894;28;20218;-80
2023/05/31 02:02:55;;;;;;;3.03;1.60;;;;;;;17.18;nan;99575.91;5001327;28;20995;-79
2023/05/31 02:05:21;;;;;;;2.40;1.80;;;;;;;17.15;nan;99582.34;5017407;28;20471;-81
2023/05/31 02:07:47;;;;;;;5.20;2.47;;;;;;;17.14;nan;99582.47;5018274;28;20480;-81
2023/05/31 02:10:14;;;;;;;3.13;1.90;;;;;;;17.07;nan;99578.72;5017505;28;20847;-81
2023/05/31 02:12:40;;;;;;;2.13;1.87;;;;;;;16.97;nan;99590.16;5000213;28;21022;-81
2023/05/31 02:15:10;;;;;;;5.60;2.43;;;;;;;16.92;nan;99592.38;5000713;28;20327;-79
2023/05/31 02:17:40;;;;;;;3.33;1.97;;;;;;;16.88;nan;99593.66;5001059;28;20209;-81
2023/05/31 02:20:10;;;;;;;3.07;2.33;;;;;;;16.85;nan;99591.28;5000470;28;20460;-79
2023/05/31 02:22:35;;;;;;;5.20;1.90;;;;;;;16.82;nan;99580.91;4999996;28;21256;-79
2023/05/31 02:25:03;;;;;;;3.70;2.17;;;;;;;16.73;nan;99582.56;4998807;28;20236;-79
2023/05/31 02:27:28;;;;;;;2.83;2.50;;;;;;;16.64;nan;99570.13;5000865;28;20470;-81
2023/05/31 02:29:54;;;;;;;8.50;2.27;;;;;;;16.60;nan;99579.31;5018058;28;20889;-82
2023/05/31 02:32:19;;;;;;;2.40;1.80;;;;;;;16.55;nan;99579.75;5019548;28;21003;-79
2023/05/31 02:34:45;;;;;;;5.13;2.30;;;;;;;16.48;nan;99578.63;5019560;28;20201;-81
2023/05/31 02:37:11;;;;;;;3.13;1.80;;;;;;;16.45;nan;99581.53;5002857;28;20651;-79
2023/05/31 02:39:37;;;;;;;4.10;2.20;;;;;;;16.40;nan;99572.31;5003583;28;20233;-80
2023/05/31 02:42:03;;;;;;;2.90;2.07;;;;;;;16.39;nan;99574.13;5016862;28;20235;-82
2023/05/31 02:44:28;;;;;;;2.60;1.73;;;;;;;16.38;nan;99575.09;4998164;28;20248;-81
2023/05/31 02:46:54;;;;;;;5.50;2.10;;;;;;;16.36;nan;99569.09;4999033;28;20674;-80
2023/05/31 02:49:20;;;;;;;3.10;1.97;;;;;;;16.32;nan;99575.66;5012483;28;20234;-81
2023/05/31 02:51:45;;;;;;;3.35;2.17;;;;;;;16.30;nan;99581.06;5018015;28;20625;-81
2023/05/31 02:54:29;;;;;;;3.90;1.63;;;;;;;16.28;nan;99582.16;5037229;28;20595;-79
2023/05/31 02:56:55;;;;;;;6.97;2.03;;;;;;;16.28;nan;99587.47;5036781;28;20211;-80
2023/05/31 02:59:23;;;;;;;2.60;2.20;;;;;;;16.25;nan;99580.63;5019559;28;20454;-79
2023/05/31 03:01:57;;;;;;;3.63;1.73;;;;;;;16.27;nan;99580.50;5017358;28;20506;-81
2023/05/31 03:04:39;;;;;;;3.67;1.80;;;;;;;16.22;nan;99582.72;5016331;28;21056;-80
2023/05/31 03:07:04;;;;;;;2.55;1.52;;;;;;;16.18;nan;99586.63;5016928;28;20219;-79
2023/05/31 03:09:30;;;;;;;2.10;1.90;;;;;;;16.15;nan;99593.03;5017658;28;20741;-80
2023/05/31 03:11:55;;;;;;;2.27;2.17;;;;;;;16.10;nan;99590.78;5017892;28;20315;-78
2023/05/31 03:14:22;;;;;;;2.47;2.25;;;;;;;16.04;nan;99583.38;5016874;28;20219;-79
2023/05/31 03:16:50;;;;;;;2.60;1.60;;;;;;;16.02;nan;99584.47;5017286;28;20647;-79
2023/05/31 03:19:16;;;;;;;2.72;2.10;;;;;;;16.01;nan;99580.13;5035961;28;20218;-81
2023/05/31 03:21:45;;;;;;;3.35;2.15;;;;;;;15.97;nan;99581.38;5018765;28;20686;-78
2023/05/31 03:24:10;;;;;;;2.40;2.20;;;;;;;15.94;nan;99587.78;5035729;28;20244;-80
2023/05/31 03:26:36;;;;;;;2.30;2.10;;;;;;;15.93;nan;99594.03;5017064;28;20608;-80
2023/05/31 03:29:02;;;;;;;4.60;1.80;;;;;;;15.93;nan;99596.69;5016423;28;20571;-79
2023/05/31 03:31:29;;;;;;;2.83;1.83;;;;;;;15.93;nan;99599.31;5035622;28;20604;-81
2023/05/31 03:33:55;;;;;;;4.03;1.95;;;;;;;15.93;nan;99602.84;5147344;23;20513;-78
2023/05/31 03:36:21;;;;;;;4.50;2.00;;;;;;;15.93;nan;99604.63;5011981;28;20512;-78
2023/05/31 03:38:46;;;;;;;5.40;2.73;;;;;;;15.89;nan;99596.09;5013365;28;20296;-79
2023/05/31 03:41:13;;;;;;;2.00;1.85;;;;;;;15.88;nan;99604.22;5009096;28;20215;-79
2023/05/31 03:43:39;;;;;;;2.13;1.80;;;;;;;15.85;nan;99599.16;5011605;28;20254;-79
2023/05/31 03:46:04;;;;;;;4.10;2.07;;;;;;;15.85;nan;99596.50;5014048;28;20699;-79
2023/05/31 03:48:30;;;;;;;4.90;1.90;;;;;;;15.85;nan;99596.50;5013918;28;20218;-79
2023/05/31 03:50:56;;;;;;;2.53;2.33;;;;;;;15.85;nan;99596.50;5013469;28;20222;-78
2023/05/31 03:53:22;;;;;;;4.40;1.90;;;;;;;15.88;nan;99596.25;5013810;28;20324;-79
2023/05/31 03:55:47;;;;;;;2.17;2.03;;;;;;;15.87;nan;99595.41;5029857;28;20575;-79
2023/05/31 03:58:13;;;;;;;4.77;2.03;;;;;;;15.87;nan;99592.75;5029824;28;20462;-79
2023/05/31 04:00:41;;;;;;;1.90;1.70;;;;;;;15.83;nan;99591.34;5012521;28;20237;-78
2023/05/31 04:03:07;;;;;;;2.38;1.70;;;;;;;15.82;nan;99591.47;5014236;28;20230;-78
2023/05/31 04:05:34;;;;;;;2.70;2.00;;;;;;;15.82;nan;99594.13;5012956;28;20464;-79
2023/05/31 04:08:01;;;;;;;5.03;1.90;;;;;;;15.82;nan;99599.41;5012999;28;20485;-80
2023/05/31 04:10:28;;;;;;;1.90;1.58;;;;;;;15.84;nan;99597.47;5012076;28;20250;-80
2023/05/31 04:12:54;;;;;;;6.07;2.13;;;;;;;15.86;nan;99598.19;5013653;28;20331;-79
2023/05/31 04:15:20;;;;;;;4.10;2.03;;;;;;;15.89;nan;99608.53;5012556;28;20209;-79
2023/05/31 04:17:45;;;;;;;3.00;1.80;;;;;;;15.92;nan;99603.78;5012981;28;20469;-79
2023/05/31 04:20:12;;;;;;;4.43;2.07;;;;;;;15.91;nan;99602.13;5011437;28;20425;-80
2023/05/31 04:22:38;;;;;;;2.42;2.00;;;;;;;15.91;nan;99604.78;5011635;28;20606;-79
2023/05/31 04:25:03;;;;;;;2.97;1.70;;;;;;;15.89;nan;99605.88;5013346;28;20711;-79
2023/05/31 04:27:38;;;;;;;3.53;2.63;;;;;;;15.95;nan;99605.34;5013557;28;20224;-80
2023/05/31 04:30:05;;;;;;;2.10;1.90;;;;;;;15.99;nan;99600.63;5013947;28;20238;-80
2023/05/31 04:32:34;;;;;;;2.22;1.70;;;;;;;16.05;nan;99605.41;5016987;28;20324;-81
2023/05/31 04:35:03;;;;;;;2.15;1.95;;;;;;;16.10;nan;99603.19;5030236;28;20212;-80
2023/05/31 04:37:30;;;;;;;2.75;1.90;;;;;;;16.12;nan;99610.03;5015050;28;20224;-80
2023/05/31 04:39:59;;;;;;;2.78;2.55;;;;;;;16.22;nan;99611.88;5032064;28;20230;-81
2023/05/31 04:42:26;;;;;;;2.55;2.10;;;;;;;16.32;nan;99604.81;5015631;28;20222;-81
2023/05/31 04:45:01;;;;;;;5.87;2.60;;;;;;;16.40;nan;99604.97;5015196;28;20226;-80
2023/05/31 04:47:31;;;;;;;4.68;2.30;;;;;;;16.56;nan;99613.25;5013667;28;20495;-81
2023/05/31 04:49:58;;;;;;;3.85;2.40;;;;;;;16.76;nan;99610.63;5014080;28;20223;-81
2023/05/31 04:52:30;;;;;;;5.20;2.22;;;;;;;17.12;nan;99609.16;5014978;28;20220;-81
2023/05/31 04:54:57;;;;;;;5.22;1.80;;;;;;;17.65;nan;99610.50;5011688;28;20281;-77
2023/05/31 04:57:24;;;;;;;2.50;2.10;;;;;;;18.07;nan;99604.84;5014423;28;20216;-82
2023/05/31 04:59:50;;;;;;;3.00;2.00;;;;;;;18.53;nan;99600.41;5013766;28;20688;-82
2023/05/31 05:02:19;;;;;;;4.03;1.90;;;;;;;18.95;nan;99607.88;5015596;28;20475;-82
2023/05/31 05:04:45;;;;;;;4.93;2.50;;;;;;;19.39;nan;99598.13;5014656;28;20462;-81
2023/05/31 05:07:11;;;;;;;6.40;2.53;;;;;;;19.72;nan;99608.22;5014896;28;20226;-83
2023/05/31 05:09:37;;;;;;;5.00;1.83;;;;;;;20.06;nan;99613.56;5015169;28;20461;-82
2023/05/31 05:12:04;;;;;;;3.40;2.13;;;;;;;20.36;nan;99606.91;5016270;28;20475;-81
2023/05/31 05:14:31;;;;;;;8.80;2.40;;;;;;;20.68;nan;99600.00;5015855;28;20748;-82
2023/05/31 05:16:57;;;;;;;2.43;1.60;;;;;;;21.00;nan;99600.06;5013888;28;20449;-82
2023/05/31 05:19:23;;;;;;;2.60;2.17;;;;;;;21.32;nan;99594.94;5010012;28;20872;-82
2023/05/31 05:21:49;;;;;;;2.50;1.80;;;;;;;21.64;nan;99599.44;5010741;28;20472;-82
2023/05/31 05:24:16;;;;;;;3.30;1.60;;;;;;;21.95;nan;99598.72;5013354;28;20453;-83
2023/05/31 05:26:42;;;;;;;3.30;1.83;;;;;;;22.25;nan;99605.16;5031596;28;20228;-82
2023/05/31 05:29:07;;;;;;;4.27;2.00;;;;;;;22.59;nan;99586.13;5016163;28;20550;-83
2023/05/31 05:31:33;;;;;;;3.13;2.10;;;;;;;22.87;nan;99597.19;5015477;28;20307;-82
2023/05/31 05:34:01;;;;;;;8.23;2.60;;;;;;;23.14;nan;99595.84;5015984;28;20234;-83
2023/05/31 05:36:27;;;;;;;3.10;2.05;;;;;;;23.61;nan;99593.94;5016818;28;20459;-83
2023/05/31 05:38:58;;;;;;;4.60;1.90;;;;;;;23.88;nan;99597.88;5015925;28;20207;-82
2023/05/31 05:41:23;;;;;;;3.97;2.20;;;;;;;24.03;nan;99590.69;5016012;28;20474;-83
2023/05/31 05:43:49;;;;;;;6.93;1.93;;;;;;;24.19;nan;99600.38;5018498;28;20857;-83
2023/05/31 05:46:16;;;;;;;3.07;1.67;;;;;;;24.45;nan;99593.72;5015762;28;20225;-82
2023/05/31 05:48:41;;;;;;;3.40;2.27;;;;;;;24.73;nan;99594.69;5033661;28;20488;-82
2023/05/31 05:51:08;;;;;;;2.90;2.47;;;;;;;25.01;nan;99588.56;5017233;28;20219;-83
2023/05/31 05:53:33;;;;;;;2.90;2.10;;;;;;;25.34;nan;99590.75;5015960;28;20439;-84
2023/05/31 05:55:58;;;;;;;3.03;1.70;;;;;;;25.70;nan;99592.47;5016064;28;20726;-82
2023/05/31 05:58:30;;;;;;;2.70;2.30;;;;;;;26.03;nan;99590.88;5016586;28;20195;-82
2023/05/31 06:01:07;;;;;;;4.93;2.40;;;;;;;26.21;nan;99590.31;5018270;28;20958;-83
2023/05/31 06:03:35;;;;;;;2.60;1.90;;;;;;;26.34;nan;99588.75;5015404;28;20467;-82
2023/05/31 06:06:03;;;;;;;4.00;1.80;;;;;;;26.47;nan;99580.72;5016146;28;21010;-82
2023/05/31 06:08:28;;;;;;;5.13;1.70;;;;;;;26.59;nan;99581.00;5017492;28;20861;-82
2023/05/31 06:10:54;;;;;;;1.83;1.50;;;;;;;26.59;nan;99581.00;5014474;28;20203;-82
2023/05/31 06:13:19;;;;;;;4.00;2.20;;;;;;;26.69;nan;99582.25;5014308;28;20274;-84
2023/05/31 06:15:44;;;;;;;2.47;1.70;;;;;;;26.89;nan;99586.88;5016460;28;20434;-82
2023/05/31 06:18:10;;;;;;;5.13;2.03;;;;;;;27.18;nan;99584.88;5016035;28;20217;-82
2023/05/31 06:20:35;;;;;;;6.77;3.17;;;;;;;27.45;nan;99586.53;5015951;28;20255;-82
2023/05/31 06:23:01;;;;;;;3.73;2.53;;;;;;;27.61;nan;99587.16;5015299;28;20617;-83
2023/05/31 06:25:27;;;;;;;2.77;2.10;;;;;;;27.71;nan;99590.28;5032770;28;20875;-83
2023/05/31 06:27:52;;;;;;;4.17;2.93;;;;;;;27.72;nan;99584.66;5015566;28;20707;-83
2023/05/31 06:30:18;;;;;;;3.37;2.10;;;;;;;27.74;nan;99585.28;5014339;28;20216;-82
2023/05/31 06:32:45;;;;;;;2.83;2.13;;;;;;;27.79;nan;99580.09;5014065;28;20784;-83
2023/05/31 06:35:16;;;;;;;4.17;2.03;;;;;;;27.79;nan;99577.38;5015045;28;21683;-83
2023/05/31 06:37:44;;;;;;;4.13;2.47;;;;;;;27.73;nan;99583.63;5013764;28;20427;-83
2023/05/31 06:40:10;;;;;;;3.10;1.80;;;;;;;27.82;nan;99581.56;5030958;28;20497;-83
2023/05/31 06:42:37;;;;;;;3.87;2.27;;;;;;;27.84;nan;99587.59;5031182;28;20479;-82
2023/05/31 06:45:25;;;;;;;4.90;2.00;;;;;;;28.01;nan;99580.69;5013768;28;21052;-83
2023/05/31 06:47:50;;;;;;;2.93;2.40;;;;;;;27.97;nan;99575.91;5015186;28;20568;-82
2023/05/31 06:50:21;;;;;;;3.33;2.17;;;;;;;28.01;nan;99580.69;5014916;28;20419;-82
2023/05/31 06:53:09;;;;;;;4.63;3.07;;;;;;;28.10;nan;99578.56;5015958;28;20519;-83
2023/05/31 06:55:43;;;;;;;6.63;2.07;;;;;;;28.26;nan;99579.97;5031032;28;21462;-83
2023/05/31 06:58:16;;;;;;;3.20;2.47;;;;;;;28.48;nan;99577.84;5029219;28;20504;-82
2023/05/31 07:00:45;;;;;;;4.60;2.30;;;;;;;28.69;nan;99560.47;5019084;28;20543;-82
2023/05/31 07:03:10;;;;;;;4.03;2.17;;;;;;;28.66;nan;99569.03;5015915;28;20482;-83
2023/05/31 07:05:36;;;;;;;3.70;2.27;;;;;;;28.52;nan;99560.16;5013885;28;20208;-82
2023/05/31 07:08:02;;;;;;;3.10;2.00;;;;;;;28.32;nan;99564.78;5015227;28;21241;-84
2023/05/31 07:10:30;;;;;;;3.53;2.00;;;;;;;28.18;nan;99569.41;5017763;28;20784;-83
2023/05/31 07:12:55;;;;;;;1.97;1.77;;;;;;;28.16;nan;99568.78;5019420;28;20487;-82
2023/05/31 07:15:21;;;;;;;3.20;2.10;;;;;;;28.11;nan;99569.44;5024905;28;20301;-82
2023/05/31 07:17:46;;;;;;;3.03;2.53;;;;;;;28.07;nan;99562.81;5022725;28;20233;-84
2023/05/31 07:20:12;;;;;;;3.80;2.37;;;;;;;28.10;nan;99561.53;5023562;28;20215;-84
2023/05/31 07:22:37;;;;;;;7.03;2.40;;;;;;;28.25;nan;99554.03;5024559;28;20219;-85
2023/05/31 07:25:04;;;;;;;7.73;3.00;;;;;;;28.34;nan;99557.31;5025000;28;20246;-82
2023/05/31 07:27:30;;;;;;;3.47;1.90;;;;;;;28.41;nan;99553.53;5024479;28;20224;-83
2023/05/31 07:29:55;;;;;;;4.30;3.00;;;;;;;28.28;nan;99560.88;5023665;28;20462;-83
2023/05/31 07:32:21;;;;;;;5.13;2.00;;;;;;;28.11;nan;99561.34;5024092;28;20488;-85
2023/05/31 07:34:47;;;;;;;5.03;2.80;;;;;;;28.14;nan;99551.97;5026265;28;20276;-85
2023/05/31 07:37:12;;;;;;;4.77;2.23;;;;;;;28.08;nan;99547.41;5023383;28;20207;-84
2023/05/31 07:39:38;;;;;;;6.00;2.67;;;;;;;28.02;nan;99547.22;5025490;28;20210;-84
2023/05/31 07:42:03;;;;;;;3.43;2.07;;;;;;;28.17;nan;99549.69;5025300;28;20237;-82
2023/05/31 07:44:29;;;;;;;3.13;1.93;;;;;;;28.36;nan;99539.84;5024141;28;20212;-82
2023/05/31 07:46:54;;;;;;;3.30;2.13;;;;;;;28.52;nan;99533.13;5023895;28;20208;-85
2023/05/31 07:49:20;;;;;;;2.83;2.47;;;;;;;28.38;nan;99536.91;5024766;28;20231;-84
2023/05/31 07:51:45;;;;;;;5.20;2.50;;;;;;;28.38;nan;99534.19;5024308;28;20202;-84
2023/05/31 07:54:10;;;;;;;3.90;2.10;;;;;;;28.42;nan;99535.44;5024459;28;20220;-84
2023/05/31 07:56:36;;;;;;;2.63;1.90;;;;;;;28.58;nan;99534.97;5024675;28;20229;-82
2023/05/31 07:59:01;;;;;;;3.10;2.23;;;;;;;28.52;nan;99535.03;5025438;28;20318;-85
2023/05/31 08:01:26;;;;;;;5.23;2.30;;;;;;;28.41;nan;99536.50;5024878;28;20202;-82
2023/05/31 08:03:54;;;;;;;3.67;2.27;;;;;;;28.12;nan;99532.47;5022028;28;20222;-83
2023/05/31 08:06:20;;;;;;;3.07;2.33;;;;;;;27.79;nan;99528.78;5024583;28;20217;-83
2023/05/31 08:08:45;;;;;;;5.30;2.30;;;;;;;27.54;nan;99527.78;5023997;28;21014;-83
2023/05/31 08:11:11;;;;;;;3.40;2.13;;;;;;;27.59;nan;99518.03;5023463;28;20215;-83
2023/05/31 08:13:36;;;;;;;4.07;2.47;;;;;;;27.50;nan;99519.31;5023002;28;20216;-82
2023/05/31 08:16:02;;;;;;;4.70;2.27;;;;;;;27.27;nan;99514.34;5022982;28;20211;-81
2023/05/31 08:18:27;;;;;;;6.07;2.50;;;;;;;27.27;nan;99513.50;5028389;28;20872;-83
2023/05/31 08:20:53;;;;;;;3.60;2.03;;;;;;;27.22;nan;99507.91;5027353;28;20218;-83
2023/05/31 08:23:20;;;;;;;2.97;2.20;;;;;;;27.18;nan;99515.59;5021614;28;20256;-83
2023/05/31 08:25:47;;;;;;;3.73;2.30;;;;;;;27.01;nan;99508.94;5020635;28;20470;-82
2023/05/31 08:28:13;;;;;;;5.07;2.43;;;;;;;26.87;nan;99513.50;5020063;28;20496;-82
2023/05/31 08:30:38;;;;;;;3.60;1.90;;;;;;;26.66;nan;99518.00;5018497;28;20916;-82
2023/05/31 08:33:04;;;;;;;4.17;3.33;;;;;;;26.52;nan;99515.47;5018633;28;20491;-82
2023/05/31 08:35:29;;;;;;;4.03;2.40;;;;;;;26.48;nan;99515.03;4986503;28;20212;-82
2023/05/31 08:37:55;;;;;;;5.83;2.43;;;;;;;26.47;nan;99514.19;5004648;28;20205;-81
2023/05/31 08:40:21;;;;;;;7.90;2.57;;;;;;;26.24;nan;99519.09;4986252;28;20208;-82
2023/05/31 08:43:07;;;;;;;4.97;2.23;;;;;;;26.26;nan;99506.25;5003183;28;20218;-82
2023/05/31 08:45:35;;;;;;;2.03;1.50;;;;;;;26.42;nan;99513.16;5007416;28;20813;-84
2023/05/31 08:48:14;;;;;;;2.83;2.43;;;;;;;26.58;nan;99499.34;5004068;28;20475;-82
2023/05/31 08:50:42;;;;;;;4.37;2.57;;;;;;;26.64;nan;99501.22;5001520;28;20454;-83
2023/05/31 08:53:08;;;;;;;5.83;2.17;;;;;;;26.56;nan;99500.56;5002048;28;20463;-83
2023/05/31 08:55:36;;;;;;;4.53;2.40;;;;;;;26.63;nan;99499.56;5005826;28;20497;-82
2023/05/31 08:58:02;;;;;;;3.83;2.20;;;;;;;26.75;nan;99499.78;5002171;28;20972;-83
2023/05/31 09:00:28;;;;;;;3.43;2.80;;;;;;;26.70;nan;99497.69;5000125;28;20456;-83
2023/05/31 09:02:55;;;;;;;3.33;2.73;;;;;;;26.75;nan;99489.00;5002885;28;20700;-83
2023/05/31 09:05:20;;;;;;;3.73;2.27;;;;;;;26.95;nan;99489.03;5004347;28;20462;-84
2023/05/31 09:07:49;;;;;;;4.80;2.50;;;;;;;27.15;nan;99492.53;5000508;28;20467;-83
2023/05/31 09:10:16;;;;;;;6.47;2.00;;;;;;;27.11;nan;99491.31;5003114;28;20283;-83
2023/05/31 09:12:42;;;;;;;9.33;2.57;;;;;;;27.18;nan;99483.25;5005327;28;20475;-81
2023/05/31 09:15:14;;;;;;;4.27;2.60;;;;;;;27.25;nan;99485.94;5006794;28;20484;-82
2023/05/31 09:17:43;;;;;;;3.57;2.47;;;;;;;27.22;nan;99484.50;5006071;28;20200;-81
2023/05/31 09:20:10;;;;;;;3.13;1.97;;;;;;;27.19;nan;99479.50;5004818;28;20550;-82
2023/05/31 09:22:35;;;;;;;4.50;2.40;;;;;;;27.25;nan;99477.84;5005561;28;20477;-81
2023/05/31 09:25:01;;;;;;;6.03;2.70;;;;;;;27.30;nan;99483.41;5003870;28;20463;-81
2023/05/31 09:27:34;;;;;;;4.73;2.00;;;;;;;27.22;nan;99476.41;5007934;28;20245;-81
2023/05/31 09:30:04;;;;;;;3.97;2.30;;;;;;;27.29;nan;99473.69;5002808;28;20213;-83
2023/05/31 09:32:30;;;;;;;3.87;3.07;;;;;;;27.33;nan;99469.53;5006565;28;20527;-81
2023/05/31 09:35:10;;;;;;;4.43;2.33;;;;;;;27.43;nan;99466.41;5009425;28;20564;-83
2023/05/31 09:37:42;;;;;;;3.40;2.20;;;;;;;27.58;nan;99470.50;5008901;28;20283;-83
2023/05/31 09:40:08;;;;;;;5.00;2.77;;;;;;;27.63;nan;99463.66;5007991;28;20824;-82
2023/05/31 09:42:33;;;;;;;4.83;2.73;;;;;;;27.83;nan;99469.84;5009828;28;20806;-82
2023/05/31 09:44:59;;;;;;;7.97;3.13;;;;;;;28.03;nan;99469.78;5009044;28;20567;-83
2023/05/31 09:47:27;;;;;;;2.77;2.57;;;;;;;28.23;nan;99467.78;5007663;28;20219;-81
2023/05/31 09:49:54;;;;;;;3.53;3.03;;;;;;;28.21;nan;99455.53;5009250;28;20485;-83
2023/05/31 09:52:27;;;;;;;4.37;2.47;;;;;;;28.29;nan;99459.88;5008907;28;20467;-83
2023/05/31 09:54:56;;;;;;;6.30;3.00;;;;;;;28.05;nan;99451.47;5006138;28;20469;-81
2023/05/31 09:57:40;;;;;;;3.10;2.80;;;;;;;28.02;nan;99449.19;5006787;28;20421;-82
2023/05/31 10:00:16;;;;;;;4.50;3.00;;;;;;;27.92;nan;99446.97;5006672;28;20462;-82
2023/05/31 10:02:43;;;;;;;4.80;3.27;;;;;;;27.78;nan;99448.03;5007086;28;20638;-81
2023/05/31 10:05:10;;;;;;;4.90;3.17;;;;;;;27.70;nan;99449.09;5008086;28;20461;-82
2023/05/31 10:07:36;;;;;;;3.50;3.20;;;;;;;27.82;nan;99446.59;5023000;28;20478;-82
2023/05/31 10:10:01;;;;;;;3.30;2.97;;;;;;;27.96;nan;99445.50;5009920;28;20446;-82
2023/05/31 10:12:29;;;;;;;4.50;3.30;;;;;;;28.19;nan;99439.56;5010966;28;20450;-82
2023/05/31 10:15:00;;;;;;;5.37;3.53;;;;;;;27.92;nan;99441.59;5006548;28;20315;-82
2023/05/31 10:17:29;;;;;;;5.30;2.70;;;;;;;27.97;nan;99443.63;5010815;28;20461;-82
2023/05/31 10:20:02;;;;;;;2.53;2.33;;;;;;;28.22;nan;99435.63;5010886;28;20506;-83
2023/05/31 10:22:31;;;;;;;5.17;3.67;;;;;;;28.31;nan;99430.78;5012169;28;20999;-82
2023/05/31 10:25:06;;;;;;;4.00;2.60;;;;;;;28.15;nan;99429.41;5006769;28;20458;-81
2023/05/31 10:27:39;;;;;;;3.43;2.83;;;;;;;27.95;nan;99435.75;5011532;28;20510;-82
2023/05/31 10:30:08;;;;;;;4.80;3.00;;;;;;;27.77;nan;99432.88;5011118;28;20462;-83
2023/05/31 10:32:43;;;;;;;2.93;2.53;;;;;;;27.89;nan;99419.56;5011166;28;20685;-81
2023/05/31 10:35:09;;;;;;;4.55;3.03;;;;;;;27.84;nan;99425.63;5011621;28;20444;-82
2023/05/31 10:37:36;;;;;;;3.30;2.90;;;;;;;28.02;nan;99428.44;5012475;28;20284;-82
2023/05/31 10:40:15;;;;;;;3.20;2.90;;;;;;;28.09;nan;99423.00;5011738;28;20530;-83
2023/05/31 10:42:53;;;;;;;4.00;3.00;;;;;;;28.15;nan;99419.44;5010888;28;20745;-82
2023/05/31 10:45:26;;;;;;;5.20;3.90;;;;;;;28.14;nan;99422.34;5010090;28;20477;-83
2023/05/31 10:48:20;;;;;;;4.10;3.07;;;;;;;28.19;nan;99431.47;5012228;28;20828;-82
2023/05/31 10:51:00;;;;;;;3.20;2.90;;;;;;;28.34;nan;99424.94;5012439;28;20465;-82
2023/05/31 10:53:35;;;;;;;3.20;2.67;;;;;;;28.14;nan;99422.34;5012595;28;20470;-82
2023/05/31 10:56:03;;;;;;;2.80;2.60;;;;;;;28.01;nan;99415.97;5010989;28;20475;-84
2023/05/31 10:58:30;;;;;;;4.13;2.87;;;;;;;28.04;nan;99416.59;5010798;28;20796;-82
2023/05/31 11:00:57;;;;;;;7.53;2.50;;;;;;;28.37;nan;99408.28;5010787;28;20474;-83
2023/05/31 11:03:24;;;;;;;4.60;3.30;;;;;;;28.53;nan;99396.16;5010841;28;20590;-83
2023/05/31 11:06:01;;;;;;;3.67;2.97;;;;;;;28.43;nan;99405.56;5010567;28;20932;-82
2023/05/31 11:08:27;;;;;;;4.60;3.13;;;;;;;28.23;nan;99399.44;5009096;28;20577;-82
2023/05/31 11:11:44;;;;;;;5.80;2.60;;;;;;;28.25;nan;99416.28;5011206;28;20961;-83
2023/05/31 11:14:30;;;;;;;3.63;3.10;;;;;;;28.07;nan;99394.56;5009628;28;20522;-83
2023/05/31 11:17:06;;;;;;;6.20;2.77;;;;;;;28.11;nan;99414.66;5010467;28;20736;-83
2023/05/31 11:19:36;;;;;;;3.13;2.63;;;;;;;28.30;nan;99410.19;5009194;28;20897;-83
2023/05/31 11:22:08;;;;;;;4.00;2.80;;;;;;;28.13;nan;99401.78;5010484;28;20563;-83
2023/05/31 11:24:36;;;;;;;4.00;2.60;;;;;;;28.33;nan;99401.69;5016392;28;20953;-82
2023/05/31 11:27:03;;;;;;;6.90;3.40;;;;;;;28.42;nan;99406.59;5015487;28;20510;-83
2023/05/31 11:29:47;;;;;;;4.13;2.80;;;;;;;28.43;nan;99397.44;5012205;28;20466;-83
2023/05/31 11:32:13;;;;;;;5.43;2.93;;;;;;;28.56;nan;99385.72;5009614;28;21006;-83
2023/05/31 11:34:56;;;;;;;6.70;2.70;;;;;;;28.45;nan;99391.84;5011487;28;20474;-82
2023/05/31 11:37:29;;;;;;;2.90;2.60;;;;;;;28.72;nan;99394.34;5010543;28;20463;-82
2023/05/31 11:39:55;;;;;;;5.10;3.10;;;;;;;28.70;nan;99389.13;5009839;28;20469;-84
2023/05/31 11:42:21;;;;;;;4.27;2.83;;;;;;;28.85;nan;99386.94;5010232;28;20846;-83
2023/05/31 11:44:49;;;;;;;6.10;3.00;;;;;;;28.72;nan;99395.16;5010245;28;20480;-83
2023/05/31 11:47:25;;;;;;;10.13;3.23;;;;;;;28.92;nan;99386.84;5008053;28;20550;-83
2023/05/31 11:49:51;;;;;;;3.23;2.70;;;;;;;28.75;nan;99389.31;5009525;28;20815;-83
2023/05/31 11:52:17;;;;;;;5.50;3.07;;;;;;;28.85;nan;99373.41;5008618;28;20524;-83
2023/05/31 11:54:45;;;;;;;2.97;2.60;;;;;;;28.74;nan;99379.56;5009603;28;20209;-82
2023/05/31 11:57:11;;;;;;;3.40;2.40;;;;;;;28.66;nan;99385.25;5009715;28;20456;-83
2023/05/31 11:59:39;;;;;;;3.03;2.73;;;;;;;28.64;nan;99379.22;5008643;28;20969;-83
2023/05/31 12:02:06;;;;;;;3.40;2.60;;;;;;;28.67;nan;99378.78;5009397;28;20526;-83
2023/05/31 12:04:41;;;;;;;2.40;2.20;;;;;;;28.92;nan;99364.41;5008909;28;20457;-83
2023/05/31 12:07:10;;;;;;;6.00;3.10;;;;;;;29.01;nan;99363.09;5009542;28;20473;-84
2023/05/31 12:09:36;;;;;;;5.50;2.53;;;;;;;28.98;nan;99369.75;5008086;28;21024;-83
2023/05/31 12:12:05;;;;;;;3.07;2.77;;;;;;;28.88;nan;99364.84;5009072;28;20478;-83
2023/05/31 12:14:31;;;;;;;3.67;2.80;;;;;;;28.74;nan;99365.22;5008819;28;20214;-83
2023/05/31 12:17:02;;;;;;;4.60;3.70;;;;;;;28.74;nan;99355.22;5010008;28;20531;-84
2023/05/31 12:19:27;;;;;;;4.20;2.67;;;;;;;28.77;nan;99352.06;5005349;28;20979;-83